Time;durP1;ratioP1;P1;durP2;ratioP2;P2;SDS_P1;SDS_P2;PMS_P1;PMS_P2;Temp;Humidity;BMP_temperature;BMP_pressure;BME280_temperature;BME280_humidity;BME280_pressure;Samples;Min_cycle;Max_cycle;Signal;HPM_P1;HPM_P2
2021/05/20 00:01:45;;;;;;;4.20;2.60;;;11.90;1.00;;;;;;4976536;28;20487;-87
2021/05/20 00:04:10;;;;;;;3.50;2.70;;;11.90;1.00;;;;;;4976280;28;20498;-87
2021/05/20 00:06:36;;;;;;;4.03;2.58;;;11.80;1.00;;;;;;4991137;28;20495;-86
2021/05/20 00:09:04;;;;;;;3.13;2.25;;;11.90;1.00;;;;;;4976684;28;20379;-87
2021/05/20 00:11:30;;;;;;;4.25;2.30;;;12.00;1.00;;;;;;4976698;28;20089;-87
2021/05/20 00:13:55;;;;;;;4.20;2.60;;;12.10;1.00;;;;;;4975940;28;20441;-87
2021/05/20 00:16:21;;;;;;;4.90;2.22;;;12.00;1.00;;;;;;4991707;28;20118;-88
2021/05/20 00:18:47;;;;;;;3.38;2.33;;;12.00;1.00;;;;;;4991804;28;20015;-87
2021/05/20 00:21:12;;;;;;;3.65;2.38;;;12.10;1.00;;;;;;4991158;28;20458;-87
2021/05/20 00:23:38;;;;;;;3.45;2.03;;;12.20;1.00;;;;;;4995002;28;20033;-87
2021/05/20 00:26:03;;;;;;;5.38;2.45;;;12.20;1.00;;;;;;4994739;28;20041;-87
2021/05/20 00:28:29;;;;;;;4.78;2.88;;;12.10;1.00;;;;;;4994607;28;20027;-87
2021/05/20 00:31:02;;;;;;;3.13;2.28;;;12.00;1.00;;;;;;4994637;28;20029;-88
2021/05/20 00:33:29;;;;;;;3.10;2.33;;;11.90;1.00;;;;;;4979964;28;20042;-87
2021/05/20 00:35:55;;;;;;;5.03;2.30;;;11.90;1.00;;;;;;4994644;28;20030;-87
2021/05/20 00:38:20;;;;;;;2.45;2.13;;;11.90;1.00;;;;;;4995642;28;20034;-87
2021/05/20 00:40:46;;;;;;;2.92;2.55;;;11.80;1.00;;;;;;4982184;28;20342;-87
2021/05/20 00:43:11;;;;;;;4.20;2.72;;;11.70;1.00;;;;;;4994713;28;20042;-87
2021/05/20 00:45:37;;;;;;;4.22;2.38;;;11.60;1.00;;;;;;4978145;28;20369;-87
2021/05/20 00:48:03;;;;;;;4.13;2.50;;;11.50;1.00;;;;;;4995049;28;20034;-87
2021/05/20 00:50:28;;;;;;;3.72;2.72;;;11.50;1.00;;;;;;4994783;28;20098;-88
2021/05/20 00:52:54;;;;;;;3.63;2.15;;;11.50;1.00;;;;;;4994031;28;20096;-87
2021/05/20 00:55:21;;;;;;;3.45;2.38;;;11.60;1.00;;;;;;4994261;28;20031;-86
2021/05/20 00:57:48;;;;;;;6.70;2.80;;;11.50;1.00;;;;;;4977267;28;20030;-87
2021/05/20 01:00:15;;;;;;;2.60;2.40;;;11.40;1.00;;;;;;4977431;28;20065;-87
2021/05/20 01:02:42;;;;;;;4.53;2.50;;;11.50;1.00;;;;;;4978652;28;20121;-87
2021/05/20 01:05:13;;;;;;;3.85;2.60;;;11.50;1.00;;;;;;4994039;28;20038;-86
2021/05/20 01:07:40;;;;;;;4.05;2.58;;;11.50;1.00;;;;;;4994507;28;20125;-87
2021/05/20 01:10:08;;;;;;;4.00;2.58;;;11.50;1.00;;;;;;4994641;28;20054;-87
2021/05/20 01:12:34;;;;;;;4.03;2.55;;;11.70;1.00;;;;;;4994584;28;20029;-87
2021/05/20 01:15:00;;;;;;;5.45;2.67;;;11.70;1.00;;;;;;4994587;28;20771;-87
2021/05/20 01:17:26;;;;;;;3.97;2.92;;;11.70;1.00;;;;;;4991445;28;20137;-87
2021/05/20 01:19:52;;;;;;;3.30;2.40;;;11.70;1.00;;;;;;4993410;28;20034;-87
2021/05/20 01:22:18;;;;;;;5.03;2.47;;;11.70;1.00;;;;;;4994822;28;20027;-87
2021/05/20 01:24:46;;;;;;;4.30;2.38;;;11.50;1.00;;;;;;4993979;28;20026;-87
2021/05/20 01:27:14;;;;;;;2.33;2.10;;;11.60;1.00;;;;;;4976661;28;20058;-87
2021/05/20 01:29:41;;;;;;;4.07;2.35;;;11.60;1.00;;;;;;4994933;28;20084;-87
2021/05/20 01:32:08;;;;;;;2.50;1.95;;;11.60;1.00;;;;;;4993282;28;20034;-87
2021/05/20 01:34:34;;;;;;;3.15;1.77;;;11.50;1.00;;;;;;4992290;28;20046;-87
2021/05/20 01:37:06;;;;;;;2.20;2.00;;;11.50;1.00;;;;;;4977152;28;20240;-87
2021/05/20 01:39:32;;;;;;;2.60;2.17;;;11.40;1.00;;;;;;4977622;28;20088;-87
2021/05/20 01:41:57;;;;;;;3.22;2.05;;;11.50;1.00;;;;;;4994202;28;20105;-87
2021/05/20 01:44:23;;;;;;;3.90;2.00;;;11.50;1.00;;;;;;4994341;28;20105;-87
2021/05/20 01:46:49;;;;;;;3.38;2.30;;;11.50;1.00;;;;;;4992550;28;20023;-88
2021/05/20 01:49:15;;;;;;;2.15;1.95;;;11.80;1.00;;;;;;4993864;28;20038;-87
2021/05/20 01:51:41;;;;;;;5.00;2.92;;;11.30;1.00;;;;;;4993212;28;20047;-87
2021/05/20 01:54:08;;;;;;;2.50;2.25;;;11.20;1.00;;;;;;4994007;28;20034;-88
2021/05/20 01:56:36;;;;;;;5.00;2.30;;;11.20;1.00;;;;;;4974578;28;20046;-87
2021/05/20 01:59:06;;;;;;;2.60;2.30;;;11.10;1.00;;;;;;4991351;28;20050;-87
2021/05/20 02:01:32;;;;;;;5.68;2.20;;;11.10;1.00;;;;;;4993071;28;20027;-87
2021/05/20 02:03:58;;;;;;;2.97;2.30;;;11.30;1.00;;;;;;4993491;28;20483;-87
2021/05/20 02:06:23;;;;;;;3.30;1.85;;;11.30;1.00;;;;;;4993611;28;20026;-87
2021/05/20 02:08:49;;;;;;;3.03;2.50;;;11.30;1.00;;;;;;4993443;28;20038;-87
2021/05/20 02:11:15;;;;;;;3.00;2.30;;;11.30;1.00;;;;;;4993193;28;20403;-86
2021/05/20 02:13:40;;;;;;;4.03;2.50;;;11.70;1.00;;;;;;4985651;28;20030;-88
2021/05/20 02:16:07;;;;;;;3.65;2.88;;;11.30;1.00;;;;;;4992732;28;20018;-87
2021/05/20 02:18:33;;;;;;;8.73;3.55;;;11.30;1.00;;;;;;4992869;28;20380;-87
2021/05/20 02:20:59;;;;;;;4.22;2.58;;;11.20;1.00;;;;;;4992872;28;20105;-87
2021/05/20 02:23:24;;;;;;;3.30;2.80;;;11.20;1.00;;;;;;4992006;28;20479;-87
2021/05/20 02:25:50;;;;;;;4.40;2.33;;;11.10;1.00;;;;;;4992553;28;20056;-87
2021/05/20 02:28:16;;;;;;;3.45;2.78;;;11.10;1.00;;;;;;4985962;28;20049;-87
2021/05/20 02:30:42;;;;;;;4.25;2.97;;;11.20;1.00;;;;;;4992576;28;20076;-87
2021/05/20 02:33:07;;;;;;;3.92;2.88;;;11.10;1.00;;;;;;4993782;28;20113;-87
2021/05/20 02:35:33;;;;;;;3.95;2.60;;;11.30;1.00;;;;;;4982375;28;20034;-87
2021/05/20 02:37:59;;;;;;;7.32;3.30;;;11.00;1.00;;;;;;4992719;28;20143;-87
2021/05/20 02:40:25;;;;;;;5.68;2.63;;;11.00;1.00;;;;;;4992777;28;20022;-87
2021/05/20 02:42:50;;;;;;;3.63;2.72;;;10.90;1.00;;;;;;4977069;28;20089;-87
2021/05/20 02:45:21;;;;;;;3.38;2.88;;;10.90;1.00;;;;;;4991324;28;20014;-87
2021/05/20 02:47:48;;;;;;;5.55;2.78;;;11.00;1.00;;;;;;4975727;28;20049;-87
2021/05/20 02:50:16;;;;;;;3.55;2.70;;;11.00;1.00;;;;;;4991953;28;20054;-87
2021/05/20 02:52:44;;;;;;;4.65;3.10;;;11.00;1.00;;;;;;4975558;28;20030;-87
2021/05/20 02:55:11;;;;;;;4.18;2.88;;;11.10;1.00;;;;;;4992627;28;20035;-87
2021/05/20 02:57:37;;;;;;;3.97;3.00;;;11.00;1.00;;;;;;4992576;28;20487;-87
2021/05/20 03:00:04;;;;;;;4.57;3.33;;;10.90;1.00;;;;;;4992062;28;20022;-87
2021/05/20 03:02:30;;;;;;;4.30;3.30;;;11.00;1.00;;;;;;4993110;28;20068;-87
2021/05/20 03:04:56;;;;;;;5.63;3.50;;;11.00;1.00;;;;;;4978409;28;20062;-87
2021/05/20 03:07:21;;;;;;;5.75;3.70;;;10.90;1.00;;;;;;4991910;28;20058;-87
2021/05/20 03:09:47;;;;;;;4.25;3.67;;;10.80;1.00;;;;;;4992509;28;20026;-86
2021/05/20 03:12:12;;;;;;;7.15;4.32;;;10.80;1.00;;;;;;4991999;28;20132;-87
2021/05/20 03:14:38;;;;;;;4.75;4.05;;;10.70;1.00;;;;;;4992518;28;20026;-87
2021/05/20 03:17:11;;;;;;;4.60;4.20;;;10.90;1.00;;;;;;4992866;28;20066;-87
2021/05/20 03:19:36;;;;;;;5.22;4.15;;;10.50;1.00;;;;;;4992716;28;20407;-87
2021/05/20 03:22:02;;;;;;;7.47;4.40;;;10.50;1.00;;;;;;4991955;28;20034;-87
2021/05/20 03:24:28;;;;;;;5.35;4.82;;;10.80;1.00;;;;;;4992897;28;20065;-87
2021/05/20 03:26:53;;;;;;;6.50;4.95;;;10.80;1.00;;;;;;4992807;28;20192;-87
2021/05/20 03:29:19;;;;;;;7.65;5.32;;;10.50;1.00;;;;;;4977072;28;20031;-86
2021/05/20 03:31:44;;;;;;;8.52;5.18;;;10.70;1.00;;;;;;4992720;28;20376;-87
2021/05/20 03:34:10;;;;;;;5.40;4.78;;;10.50;1.00;;;;;;4992328;28;20400;-87
2021/05/20 03:36:36;;;;;;;9.30;4.95;;;10.40;1.00;;;;;;4992047;28;20042;-87
2021/05/20 03:39:02;;;;;;;9.50;5.40;;;10.40;1.00;;;;;;4992106;28;20495;-87
2021/05/20 03:41:27;;;;;;;7.22;5.72;;;10.30;1.00;;;;;;4992450;28;20022;-87
2021/05/20 03:43:53;;;;;;;8.60;6.30;;;10.30;1.00;;;;;;4988120;28;20398;-87
2021/05/20 03:46:20;;;;;;;8.35;6.68;;;10.20;1.00;;;;;;4977299;28;20077;-87
2021/05/20 03:48:46;;;;;;;9.68;6.32;;;10.30;1.00;;;;;;4992155;28;20033;-87
2021/05/20 03:51:11;;;;;;;7.32;6.55;;;10.20;1.00;;;;;;4992417;28;20030;-87
2021/05/20 03:53:37;;;;;;;7.13;6.05;;;10.60;1.00;;;;;;4981328;28;20061;-88
2021/05/20 03:56:03;;;;;;;11.25;6.53;;;10.20;1.00;;;;;;4975702;28;20693;-86
2021/05/20 03:58:29;;;;;;;8.73;6.97;;;10.10;1.00;;;;;;4990591;28;20060;-87
2021/05/20 04:00:55;;;;;;;8.15;6.80;;;10.50;1.00;;;;;;4995448;28;20022;-87
2021/05/20 04:03:28;;;;;;;8.73;6.88;;;10.20;1.00;;;;;;4977966;28;20034;-87
2021/05/20 04:05:55;;;;;;;11.13;7.63;;;10.40;1.00;;;;;;4976889;28;20031;-86
2021/05/20 04:08:21;;;;;;;10.02;6.93;;;9.90;1.00;;;;;;4996203;28;20030;-87
2021/05/20 04:10:48;;;;;;;11.63;7.53;;;10.20;1.00;;;;;;4995393;28;20031;-87
2021/05/20 04:13:25;;;;;;;10.95;7.32;;;10.20;1.00;;;;;;4981195;28;20097;-88
2021/05/20 04:15:51;;;;;;;14.23;7.55;;;9.80;1.00;;;;;;4995235;28;20125;-87
2021/05/20 04:18:17;;;;;;;8.63;7.15;;;9.90;1.00;;;;;;4978369;28;20117;-87
2021/05/20 04:20:42;;;;;;;8.93;6.72;;;9.90;1.00;;;;;;4979458;28;20058;-87
2021/05/20 04:23:08;;;;;;;6.82;5.47;;;10.00;1.00;;;;;;4995532;28;20034;-88
2021/05/20 04:25:34;;;;;;;7.45;5.82;;;10.40;1.00;;;;;;4995460;28;20097;-87
2021/05/20 04:27:59;;;;;;;6.78;5.53;;;10.60;1.00;;;;;;4994929;28;20038;-87
2021/05/20 04:30:25;;;;;;;6.85;5.05;;;10.10;1.00;;;;;;4995373;28;20030;-87
2021/05/20 04:32:53;;;;;;;7.07;4.97;;;10.20;1.00;;;;;;4995628;28;20034;-87
2021/05/20 04:35:19;;;;;;;11.88;4.50;;;10.20;1.00;;;;;;4995091;28;20105;-87
2021/05/20 04:37:45;;;;;;;7.28;5.00;;;10.30;1.00;;;;;;4994689;28;20605;-87
2021/05/20 04:40:11;;;;;;;8.32;5.28;;;10.60;1.00;;;;;;4994832;28;20741;-87
2021/05/20 04:42:37;;;;;;;14.20;5.60;;;10.20;1.00;;;;;;4977558;28;20384;-88
2021/05/20 04:45:03;;;;;;;7.80;5.18;;;10.20;1.00;;;;;;4995283;28;20022;-87
2021/05/20 04:47:29;;;;;;;10.05;5.88;;;10.20;1.00;;;;;;4984333;28;20040;-88
2021/05/20 04:49:54;;;;;;;12.32;6.30;;;10.50;1.00;;;;;;4994708;28;20034;-87
2021/05/20 04:52:20;;;;;;;9.95;6.32;;;10.40;1.00;;;;;;4994954;28;20507;-88
2021/05/20 04:54:46;;;;;;;13.13;6.38;;;10.40;1.00;;;;;;4994592;28;20030;-88
2021/05/20 04:57:12;;;;;;;7.68;6.50;;;10.90;1.00;;;;;;4993998;28;20034;-87
2021/05/20 04:59:37;;;;;;;11.07;6.15;;;10.40;1.00;;;;;;4977739;28;20077;-87
2021/05/20 05:02:03;;;;;;;10.90;6.47;;;10.40;1.00;;;;;;4992834;28;20113;-87
2021/05/20 05:04:28;;;;;;;29.77;6.40;;;10.60;1.00;;;;;;4994849;28;20030;-87
2021/05/20 05:06:54;;;;;;;18.17;6.10;;;10.60;1.00;;;;;;4995215;28;20084;-87
2021/05/20 05:09:20;;;;;;;19.70;6.45;;;10.60;1.00;;;;;;4977547;28;20034;-87
2021/05/20 05:11:45;;;;;;;22.33;6.35;;;10.40;1.00;;;;;;4994779;28;20026;-88
2021/05/20 05:14:11;;;;;;;8.68;6.32;;;10.80;1.00;;;;;;4995451;28;20045;-88
2021/05/20 05:16:36;;;;;;;9.70;7.43;;;10.60;1.00;;;;;;4994393;28;20049;-87
2021/05/20 05:19:02;;;;;;;13.27;7.75;;;10.70;1.00;;;;;;4994524;28;20118;-87
2021/05/20 05:21:28;;;;;;;15.13;8.32;;;10.50;1.00;;;;;;4994179;28;20026;-88
2021/05/20 05:23:54;;;;;;;14.32;8.77;;;10.60;1.00;;;;;;4977471;28;20018;-87
2021/05/20 05:26:22;;;;;;;13.05;9.55;;;10.60;1.00;;;;;;4993961;28;20523;-87
2021/05/20 05:28:48;;;;;;;11.57;9.10;;;10.70;1.00;;;;;;4994038;28;20022;-87
2021/05/20 05:31:17;;;;;;;13.43;9.48;;;10.70;1.00;;;;;;4993965;28;20065;-87
2021/05/20 05:33:44;;;;;;;13.45;9.80;;;10.60;1.00;;;;;;4979535;28;20046;-88
2021/05/20 05:36:09;;;;;;;12.18;8.98;;;10.50;1.00;;;;;;4975935;28;20030;-87
2021/05/20 05:38:35;;;;;;;14.73;9.57;;;10.50;1.00;;;;;;4973955;28;20031;-88
2021/05/20 05:41:01;;;;;;;14.88;9.02;;;10.80;1.00;;;;;;4974371;28;20395;-87
2021/05/20 05:43:27;;;;;;;14.23;9.10;;;10.80;1.00;;;;;;4976180;28;20053;-86
2021/05/20 05:45:52;;;;;;;13.55;9.25;;;10.90;1.00;;;;;;4993701;28;20494;-87
2021/05/20 05:48:18;;;;;;;12.50;8.10;;;10.80;1.00;;;;;;4993412;28;20034;-86
2021/05/20 05:50:45;;;;;;;12.27;9.15;;;11.30;1.00;;;;;;4993820;28;20026;-86
2021/05/20 05:53:10;;;;;;;11.70;8.02;;;11.30;1.00;;;;;;4993331;28;20064;-87
2021/05/20 05:55:36;;;;;;;10.40;8.35;;;11.60;1.00;;;;;;4994308;28;20084;-87
2021/05/20 05:58:01;;;;;;;10.35;8.00;;;11.20;1.00;;;;;;4976732;28;20085;-86
2021/05/20 06:00:27;;;;;;;10.02;7.97;;;11.20;1.00;;;;;;4993487;28;20053;-88
2021/05/20 06:02:53;;;;;;;11.65;8.38;;;11.20;1.00;;;;;;4993889;28;20026;-87
2021/05/20 06:05:19;;;;;;;11.48;8.18;;;11.30;1.00;;;;;;4992694;28;20029;-87
2021/05/20 06:07:45;;;;;;;12.88;8.18;;;11.30;1.00;;;;;;4993024;28;20479;-91
2021/05/20 06:10:11;;;;;;;10.60;8.23;;;11.20;1.00;;;;;;4977761;28;20113;-93
2021/05/20 06:12:37;;;;;;;13.48;9.30;;;11.20;1.00;;;;;;4994867;28;20113;-93
2021/05/20 06:15:04;;;;;;;12.05;8.30;;;11.30;1.00;;;;;;4994890;28;20058;-91
2021/05/20 06:17:30;;;;;;;10.15;8.43;;;11.50;1.00;;;;;;4994013;28;20380;-91
2021/05/20 06:19:56;;;;;;;11.88;8.70;;;11.80;1.00;;;;;;4994138;28;20033;-93
2021/05/20 06:22:21;;;;;;;13.85;8.55;;;11.80;1.00;;;;;;4985622;28;20026;-92
2021/05/20 06:24:47;;;;;;;11.55;8.70;;;11.80;1.00;;;;;;4994718;28;20034;-91
2021/05/20 06:27:13;;;;;;;10.00;8.15;;;11.80;1.00;;;;;;4991931;28;20057;-91
2021/05/20 06:29:38;;;;;;;10.50;8.55;;;11.80;1.00;;;;;;4975462;28;20048;-91
2021/05/20 06:32:04;;;;;;;10.23;8.32;;;12.00;1.00;;;;;;4958221;28;20435;-91
2021/05/20 06:34:30;;;;;;;10.55;8.68;;;12.30;1.00;;;;;;4970852;28;20053;-91
2021/05/20 06:36:58;;;;;;;10.43;8.15;;;12.40;1.00;;;;;;4976078;28;20033;-87
2021/05/20 06:39:24;;;;;;;9.85;8.30;;;12.30;1.00;;;;;;4960372;28;20025;-92
2021/05/20 06:41:49;;;;;;;9.10;7.78;;;12.10;1.00;;;;;;4977429;28;20026;-87
2021/05/20 06:44:15;;;;;;;9.13;7.47;;;12.00;1.00;;;;;;4993947;28;20022;-93
2021/05/20 06:46:40;;;;;;;9.55;7.55;;;11.90;1.00;;;;;;4984006;28;20125;-90
2021/05/20 06:49:08;;;;;;;9.45;7.72;;;12.00;1.00;;;;;;4993178;28;20019;-91
2021/05/20 06:51:34;;;;;;;8.55;6.65;;;12.00;1.00;;;;;;4992625;28;20077;-94
2021/05/20 06:54:00;;;;;;;9.23;7.35;;;12.00;1.00;;;;;;4992136;28;20031;-89
2021/05/20 06:56:28;;;;;;;10.60;7.22;;;12.10;1.00;;;;;;4992710;28;20045;-89
2021/05/20 07:01:44;;;;;;;9.93;7.22;;;12.10;1.00;;;;;;4992215;28;20072;-89
2021/05/20 07:04:10;;;;;;;8.65;6.90;;;12.10;1.00;;;;;;4975351;28;20121;-89
2021/05/20 07:06:35;;;;;;;8.63;7.00;;;12.10;1.00;;;;;;4975341;28;20113;-89
2021/05/20 07:09:01;;;;;;;8.15;6.90;;;12.30;1.00;;;;;;4992314;28;20391;-89
2021/05/20 07:11:30;;;;;;;7.15;6.30;;;12.30;1.00;;;;;;4991250;28;20030;-89
2021/05/20 07:13:56;;;;;;;7.57;6.78;;;12.20;1.00;;;;;;4991786;28;20027;-90
2021/05/20 07:16:22;;;;;;;7.03;5.85;;;12.20;1.00;;;;;;4991978;28;20030;-89
2021/05/20 07:18:47;;;;;;;6.97;6.28;;;12.30;1.00;;;;;;4992104;28;20018;-89
2021/05/20 07:21:13;;;;;;;7.13;6.32;;;12.00;1.00;;;;;;4973998;28;20027;-89
2021/05/20 07:23:38;;;;;;;9.73;6.32;;;12.00;1.00;;;;;;4975419;28;20622;-89
2021/05/20 07:26:04;;;;;;;6.40;5.65;;;12.00;1.00;;;;;;4991787;28;20054;-89
2021/05/20 07:28:31;;;;;;;6.88;4.45;;;11.90;1.00;;;;;;4991763;28;20026;-89
2021/05/20 07:30:56;;;;;;;6.90;4.50;;;12.30;1.00;;;;;;4991975;28;20031;-89
2021/05/20 07:33:23;;;;;;;7.65;4.97;;;12.10;1.00;;;;;;4994908;28;20034;-89
2021/05/20 07:35:49;;;;;;;5.25;4.60;;;12.30;1.00;;;;;;4995980;28;20084;-89
2021/05/20 07:38:15;;;;;;;6.15;4.65;;;12.10;1.00;;;;;;4979966;28;20129;-89
2021/05/20 07:40:40;;;;;;;7.07;4.47;;;11.90;1.00;;;;;;4996074;28;20038;-89
2021/05/20 07:43:06;;;;;;;5.28;3.80;;;12.10;1.00;;;;;;4995596;28;20034;-88
2021/05/20 07:45:32;;;;;;;4.43;4.00;;;12.10;1.00;;;;;;4979117;28;20533;-89
2021/05/20 07:47:57;;;;;;;6.32;4.90;;;12.10;1.00;;;;;;4995962;28;20030;-89
2021/05/20 07:50:23;;;;;;;5.88;4.20;;;12.50;1.00;;;;;;4995014;28;20034;-89
2021/05/20 07:52:49;;;;;;;4.53;3.90;;;12.40;1.00;;;;;;4979573;28;20030;-89
2021/05/20 07:55:15;;;;;;;4.80;4.40;;;12.60;1.00;;;;;;4995802;28;20032;-89
2021/05/20 07:57:42;;;;;;;5.25;4.75;;;12.20;1.00;;;;;;4995263;28;20030;-89
2021/05/20 08:00:10;;;;;;;4.80;4.30;;;12.40;1.00;;;;;;4977854;28;20068;-89
2021/05/20 08:02:44;;;;;;;5.45;4.80;;;12.70;1.00;;;;;;4994065;28;20037;-89
2021/05/20 08:05:18;;;;;;;5.63;4.95;;;12.60;1.00;;;;;;4994806;28;20112;-89
2021/05/20 08:12:48;;;;;;;4.75;3.78;;;12.50;1.00;;;;;;4995006;28;20034;-88
2021/05/20 08:15:14;;;;;;;4.82;3.72;;;12.60;1.00;;;;;;4995446;28;20026;-89
2021/05/20 08:17:40;;;;;;;4.05;3.53;;;12.70;1.00;;;;;;4995492;28;20416;-88
2021/05/20 08:20:06;;;;;;;4.70;3.42;;;12.80;1.00;;;;;;4994504;28;20018;-88
2021/05/20 08:22:32;;;;;;;6.22;3.28;;;12.90;1.00;;;;;;4978717;28;20030;-89
2021/05/20 08:24:58;;;;;;;4.53;3.58;;;13.10;1.00;;;;;;4994850;28;20025;-89
2021/05/20 08:27:24;;;;;;;4.32;3.67;;;13.20;1.00;;;;;;4962127;28;20034;-89
2021/05/20 08:29:50;;;;;;;4.25;3.45;;;13.30;1.00;;;;;;4995575;28;20030;-89
2021/05/20 08:32:16;;;;;;;4.15;3.60;;;13.40;1.00;;;;;;4978771;28;20034;-88
2021/05/20 08:34:42;;;;;;;3.25;1.85;;;13.40;1.00;;;;;;4978074;28;20022;-89
2021/05/20 08:37:08;;;;;;;2.60;2.15;;;13.60;1.00;;;;;;4994694;28;20045;-88
2021/05/20 08:39:33;;;;;;;4.05;2.25;;;14.30;1.00;;;;;;4994465;28;20025;-88
2021/05/20 08:41:59;;;;;;;3.90;2.15;;;14.00;1.00;;;;;;4995089;28;20026;-89
2021/05/20 08:44:29;;;;;;;2.25;1.83;;;14.00;1.00;;;;;;4994506;28;20109;-88
2021/05/20 08:46:58;;;;;;;3.58;2.50;;;14.00;1.00;;;;;;4983954;28;20145;-89
2021/05/20 08:49:24;;;;;;;3.05;2.17;;;14.50;1.00;;;;;;4994130;28;20482;-89
2021/05/20 08:51:51;;;;;;;3.60;2.00;;;14.60;1.00;;;;;;4994786;28;20038;-89
2021/05/20 08:54:18;;;;;;;1.70;1.60;;;15.00;1.00;;;;;;4994434;28;20026;-89
2021/05/20 08:56:54;;;;;;;2.95;2.10;;;15.20;1.00;;;;;;4978361;28;20038;-89
2021/05/20 08:59:21;;;;;;;2.72;2.00;;;15.40;1.00;;;;;;4994143;28;20045;-89
2021/05/20 09:01:48;;;;;;;4.05;1.90;;;15.50;1.00;;;;;;4993855;28;20019;-89
2021/05/20 09:04:13;;;;;;;3.08;1.50;;;15.30;1.00;;;;;;4993894;28;20066;-88
2021/05/20 09:06:48;;;;;;;2.67;1.50;;;15.60;1.00;;;;;;4994415;28;20046;-89
2021/05/20 09:09:17;;;;;;;3.42;1.33;;;15.70;1.00;;;;;;4994062;28;20097;-89
2021/05/20 09:11:52;;;;;;;2.35;1.15;;;16.10;99.90;;;;;;4994511;28;20030;-89
2021/05/20 09:14:34;;;;;;;1.10;1.00;;;16.10;99.90;;;;;;4993963;28;20054;-89
2021/05/20 09:17:13;;;;;;;1.70;1.25;;;16.20;99.90;;;;;;4977422;28;20030;-89
2021/05/20 09:19:45;;;;;;;6.00;1.10;;;16.60;99.90;;;;;;4977642;28;20080;-88
2021/05/20 09:22:13;;;;;;;2.92;1.30;;;16.70;99.90;;;;;;4993641;28;20088;-89
2021/05/20 09:24:56;;;;;;;2.90;1.00;;;16.90;99.90;;;;;;4976791;28;20423;-89
2021/05/20 09:27:34;;;;;;;1.75;1.00;;;16.80;99.90;;;;;;4976778;28;20077;-89
2021/05/20 09:30:19;;;;;;;1.17;1.08;;;16.90;99.90;;;;;;4990331;28;20040;-89
2021/05/20 09:33:06;;;;;;;3.30;1.10;;;16.60;99.90;;;;;;4992624;28;20045;-89
2021/05/20 09:35:35;;;;;;;2.35;0.88;;;16.60;99.90;;;;;;4994067;28;20437;-88
2021/05/20 09:38:09;;;;;;;2.00;1.08;;;16.40;99.90;;;;;;4993457;28;20038;-89
2021/05/20 09:40:36;;;;;;;2.70;0.80;;;16.20;99.90;;;;;;4993415;28;20042;-89
2021/05/20 09:43:16;;;;;;;3.35;0.98;;;16.40;99.90;;;;;;4993517;28;20034;-89
2021/05/20 09:45:42;;;;;;;1.77;0.85;;;16.40;99.90;;;;;;4992921;28;20081;-89
2021/05/20 09:48:08;;;;;;;1.63;1.00;;;16.60;99.90;;;;;;4993887;28;20041;-89
2021/05/20 09:50:40;;;;;;;1.75;0.88;;;16.70;99.90;;;;;;4993641;28;20026;-89
2021/05/20 09:53:11;;;;;;;1.58;1.00;;;17.00;99.90;;;;;;4993355;28;20514;-89
2021/05/20 09:55:54;;;;;;;0.80;0.80;;;17.20;99.90;;;;;;4992114;28;20080;-89
2021/05/20 09:58:22;;;;;;;2.17;0.90;;;17.10;99.90;;;;;;4992740;28;20034;-89
2021/05/20 10:00:49;;;;;;;2.05;0.90;;;17.10;99.90;;;;;;4992706;28;20027;-89
2021/05/20 10:03:16;;;;;;;1.23;0.70;;;17.30;99.90;;;;;;4993383;28;20415;-89
2021/05/20 10:05:43;;;;;;;4.05;0.75;;;17.60;99.90;;;;;;4993843;28;20026;-89
2021/05/20 10:08:12;;;;;;;1.40;0.73;;;17.80;99.90;;;;;;4976447;28;20030;-89
2021/05/20 10:10:41;;;;;;;1.38;0.80;;;17.90;99.90;;;;;;4992718;28;20337;-89
2021/05/20 10:13:09;;;;;;;0.90;0.80;;;17.60;99.90;;;;;;4992957;28;20026;-89
2021/05/20 10:15:37;;;;;;;2.22;0.95;;;17.60;99.90;;;;;;4992043;28;20026;-89
2021/05/20 10:18:15;;;;;;;1.25;0.90;;;17.60;99.90;;;;;;4992842;28;20031;-89
2021/05/20 10:20:43;;;;;;;1.65;0.80;;;17.80;99.90;;;;;;4974461;28;20335;-88
2021/05/20 10:23:14;;;;;;;2.72;1.00;;;17.90;99.90;;;;;;4992601;28;20057;-89
2021/05/20 10:25:41;;;;;;;2.78;1.00;;;17.90;99.90;;;;;;4992622;28;20034;-89
2021/05/20 10:28:09;;;;;;;2.20;0.77;;;17.30;99.90;;;;;;4992281;28;20040;-88
2021/05/20 10:30:37;;;;;;;1.38;0.90;;;17.40;99.90;;;;;;4991991;28;20633;-89
2021/05/20 10:33:04;;;;;;;2.80;0.90;;;17.20;99.90;;;;;;4992869;28;20027;-89
2021/05/20 10:35:39;;;;;;;2.90;0.95;;;17.40;99.90;;;;;;4992862;28;20050;-89
2021/05/20 10:38:05;;;;;;;0.70;0.70;;;17.90;99.90;;;;;;4976426;28;20069;-89
2021/05/20 10:40:33;;;;;;;1.35;0.80;;;17.80;99.90;;;;;;4976045;28;20453;-89
2021/05/20 10:43:03;;;;;;;2.45;0.85;;;17.80;99.90;;;;;;4976101;28;20034;-89
2021/05/20 10:45:29;;;;;;;2.35;0.90;;;18.10;99.90;;;;;;4992189;28;20022;-89
2021/05/20 10:48:04;;;;;;;1.77;0.70;;;18.00;99.90;;;;;;4975277;28;20065;-88
2021/05/20 10:50:52;;;;;;;1.35;0.70;;;18.10;99.90;;;;;;4992370;28;20026;-89
2021/05/20 10:53:50;;;;;;;1.35;0.80;;;18.40;99.90;;;;;;4991777;28;20034;-89
2021/05/20 10:56:15;;;;;;;1.17;0.70;;;18.30;99.90;;;;;;4991817;28;20046;-89
2021/05/20 10:58:44;;;;;;;1.35;0.70;;;18.70;99.90;;;;;;4991723;28;20022;-89
2021/05/20 11:01:25;;;;;;;3.70;0.70;;;18.70;99.90;;;;;;4991816;28;20034;-89
2021/05/20 11:03:57;;;;;;;1.13;0.68;;;18.90;99.90;;;;;;4991749;28;20057;-89
2021/05/20 11:06:45;;;;;;;0.85;0.70;;;19.10;99.90;;;;;;4976665;28;20034;-89
2021/05/20 11:09:12;;;;;;;2.03;0.70;;;19.40;99.90;;;;;;4990715;28;20026;-89
2021/05/20 11:11:37;;;;;;;2.10;0.80;;;19.30;99.90;;;;;;4992411;28;20402;-89
2021/05/20 11:14:13;;;;;;;0.98;0.70;;;19.10;99.90;;;;;;4991502;28;20029;-88
2021/05/20 11:16:46;;;;;;;2.33;0.95;;;19.20;99.90;;;;;;4991619;28;20038;-89
2021/05/20 11:19:20;;;;;;;1.42;0.80;;;19.60;99.90;;;;;;4991670;28;20110;-89
2021/05/20 11:22:11;;;;;;;1.23;0.70;;;19.60;99.90;;;;;;4991635;28;20039;-90
2021/05/20 11:24:43;;;;;;;1.48;0.90;;;19.50;99.90;;;;;;4968910;28;20058;-89
2021/05/20 11:27:15;;;;;;;1.70;0.90;;;20.00;99.90;;;;;;4991565;28;20487;-90
2021/05/20 11:29:43;;;;;;;1.20;0.80;;;20.20;99.90;;;;;;4991334;28;20034;-87
2021/05/20 11:32:34;;;;;;;2.72;0.85;;;20.10;99.90;;;;;;4991346;28;20030;-87
2021/05/20 11:35:35;;;;;;;1.50;0.70;;;19.90;99.90;;;;;;4991722;28;20023;-87
2021/05/20 11:38:01;;;;;;;2.05;0.73;;;19.60;99.90;;;;;;4991725;28;20069;-87
2021/05/20 11:40:29;;;;;;;1.70;0.80;;;20.30;99.90;;;;;;4991069;28;20054;-86
2021/05/20 11:42:55;;;;;;;0.90;0.70;;;20.30;99.90;;;;;;4991048;28;20084;-87
2021/05/20 11:45:26;;;;;;;3.00;0.90;;;21.10;99.90;;;;;;4974487;28;20035;-86
2021/05/20 11:47:53;;;;;;;2.25;1.00;;;23.40;99.90;;;;;;4970593;28;20031;-87
2021/05/20 11:50:21;;;;;;;0.98;0.70;;;25.60;99.90;;;;;;4991673;28;20038;-87
2021/05/20 11:52:46;;;;;;;1.08;0.68;;;26.20;99.90;;;;;;4991307;28;20522;-86
2021/05/20 11:55:12;;;;;;;2.22;0.70;;;27.60;99.90;;;;;;4990785;28;20030;-87
2021/05/20 11:57:38;;;;;;;0.90;0.70;;;27.90;99.90;;;;;;4991062;28;20462;-87
2021/05/20 12:00:05;;;;;;;1.65;0.82;;;27.30;99.90;;;;;;4991761;28;20081;-86
2021/05/20 12:02:34;;;;;;;0.95;0.70;;;27.40;99.90;;;;;;4991634;28;20117;-87
2021/05/20 12:05:06;;;;;;;2.05;0.60;;;27.80;99.90;;;;;;4991373;28;20468;-87
2021/05/20 12:07:33;;;;;;;1.33;0.90;;;27.30;99.90;;;;;;4975002;28;20053;-87
2021/05/20 12:10:16;;;;;;;1.20;0.70;;;28.10;99.90;;;;;;4990363;28;20026;-86
2021/05/20 12:13:03;;;;;;;1.90;0.88;;;27.80;99.90;;;;;;4991023;28;20030;-87
2021/05/20 12:15:29;;;;;;;2.40;0.85;;;24.50;99.90;;;;;;4976447;28;20029;-87
2021/05/20 12:18:00;;;;;;;3.15;0.77;;;23.90;99.90;;;;;;4992183;28;20121;-87
2021/05/20 12:20:27;;;;;;;1.58;0.90;;;23.30;99.90;;;;;;4995086;28;20110;-87
2021/05/20 12:22:53;;;;;;;1.02;0.60;;;22.60;99.90;;;;;;4978346;28;20029;-87
2021/05/20 12:25:22;;;;;;;1.65;0.77;;;24.30;99.90;;;;;;4993791;28;20057;-86
2021/05/20 12:27:50;;;;;;;1.80;0.73;;;25.30;99.90;;;;;;4994703;28;20041;-87
2021/05/20 12:30:18;;;;;;;1.83;0.60;;;25.80;99.90;;;;;;4994759;28;20569;-87
2021/05/20 12:33:13;;;;;;;1.45;0.60;;;26.20;99.90;;;;;;4994930;28;20270;-87
2021/05/20 12:35:43;;;;;;;1.00;0.60;;;26.60;99.90;;;;;;4976224;28;20054;-87
2021/05/20 12:38:14;;;;;;;1.35;0.63;;;27.00;99.90;;;;;;4994748;28;20033;-87
2021/05/20 12:40:45;;;;;;;2.53;0.80;;;27.10;99.90;;;;;;4993726;28;20026;-87
2021/05/20 12:43:16;;;;;;;1.75;0.93;;;26.60;99.90;;;;;;4994283;28;20506;-87
2021/05/20 12:45:45;;;;;;;0.65;0.50;;;26.90;99.90;;;;;;4994672;28;20557;-87
2021/05/20 12:48:35;;;;;;;1.63;0.43;;;27.10;99.90;;;;;;4976838;28;20030;-87
2021/05/20 12:51:23;;;;;;;1.20;0.60;;;25.80;99.90;;;;;;4982237;28;20483;-86
2021/05/20 12:53:59;;;;;;;0.85;0.70;;;25.20;99.90;;;;;;4994610;28;20069;-87
2021/05/20 12:56:42;;;;;;;0.95;0.47;;;26.00;99.90;;;;;;4994055;28;20050;-86
2021/05/20 12:59:14;;;;;;;0.82;0.60;;;26.80;99.90;;;;;;4994052;28;20022;-87
2021/05/20 13:01:45;;;;;;;2.20;0.70;;;27.10;99.90;;;;;;4994069;28;20091;-87
2021/05/20 13:04:12;;;;;;;1.40;0.70;;;26.80;99.90;;;;;;4993641;28;20610;-86
2021/05/20 13:06:38;;;;;;;1.27;0.60;;;26.90;99.90;;;;;;4993831;28;20026;-86